TVF47D EDDN-EDDB
Flight info
| Callsign | TVF47D |
|---|---|
| Flight time | N/A |
| Altitude | 31000 |
| Route | ERETO1G/28 ERETO DCT TABAT T202 MILGU/N0433F270 T202 ATGUP |
| Aircraft | B738/M-SDE2E3FGHIRWXY/LB1 |
Departure
| Time | 2026-04-27 19:59 |
|---|---|
| Airport | Nuremberg Airport (EDDN) |
Arrival
| Time | N/A |
|---|---|
| Airport | Berlin Brandenburg Airport (EDDB) |
| Time | Latitude | Longitude | Altitude | Speed | Heading |
|---|---|---|---|---|---|
| 2026-04-27 19:44 | 49.49516 | 11.07791 | 1034 ft | 0 kts | 188° |
| 2026-04-27 19:52 | 49.49520 | 11.07792 | 1034 ft | 3 kts | 188° |
| 2026-04-27 19:53 | 49.49544 | 11.07797 | 1035 ft | 0 kts | 193° |
| 2026-04-27 19:53 | 49.49559 | 11.07799 | 1035 ft | 2 kts | 168° |
| 2026-04-27 19:53 | 49.49575 | 11.07789 | 1035 ft | 2 kts | 140° |
| 2026-04-27 19:54 | 49.49586 | 11.07769 | 1036 ft | 3 kts | 110° |
| 2026-04-27 19:54 | 49.49588 | 11.07756 | 1036 ft | 0 kts | 95° |
| 2026-04-27 19:55 | 49.49577 | 11.07881 | 1037 ft | 19 kts | 98° |
| 2026-04-27 19:55 | 49.49556 | 11.08083 | 1036 ft | 19 kts | 98° |
| 2026-04-27 19:55 | 49.49537 | 11.08278 | 1039 ft | 18 kts | 96° |
| 2026-04-27 19:55 | 49.49571 | 11.08357 | 1041 ft | 11 kts | 14° |
| 2026-04-27 19:56 | 49.49617 | 11.08410 | 1042 ft | 10 kts | 70° |
| 2026-04-27 19:56 | 49.49602 | 11.08594 | 1044 ft | 21 kts | 100° |
| 2026-04-27 19:56 | 49.49580 | 11.08808 | 1046 ft | 20 kts | 98° |
| 2026-04-27 19:56 | 49.49561 | 11.09016 | 1048 ft | 19 kts | 98° |
| 2026-04-27 19:57 | 49.49543 | 11.09217 | 1052 ft | 19 kts | 99° |
| 2026-04-27 19:57 | 49.49558 | 11.09404 | 1054 ft | 18 kts | 56° |
| 2026-04-27 19:57 | 49.49644 | 11.09556 | 1057 ft | 19 kts | 24° |
| 2026-04-27 19:57 | 49.49712 | 11.09483 | 1057 ft | 13 kts | 275° |
| 2026-04-27 19:58 | 49.49736 | 11.09196 | 1055 ft | 57 kts | 278° |
| 2026-04-27 19:58 | 49.49829 | 11.08220 | 1042 ft | 124 kts | 278° |
| 2026-04-27 19:58 | 49.49954 | 11.06617 | 1095 ft | 171 kts | 278° |
| 2026-04-27 19:58 | 49.50126 | 11.04742 | 1643 ft | 182 kts | 279° |
| 2026-04-27 19:59 | 49.50332 | 11.02711 | 2114 ft | 205 kts | 281° |